createdAt,value
2017-12-06T00:02:03.568Z,3.70
2017-12-06T00:04:29.752Z,3.73
2017-12-06T00:06:56.241Z,3.37
2017-12-06T00:09:22.461Z,3.80
2017-12-06T00:11:48.667Z,3.87
2017-12-06T00:14:20.953Z,3.20
2017-12-06T00:16:47.169Z,3.20
2017-12-06T00:19:13.605Z,3.47
2017-12-06T00:21:39.877Z,3.23
2017-12-06T00:24:06.145Z,3.33
2017-12-06T00:26:32.335Z,3.30
2017-12-06T00:28:58.613Z,3.50
2017-12-06T00:31:24.777Z,3.93
2017-12-06T00:33:51.234Z,3.13
2017-12-06T00:36:17.472Z,3.73
2017-12-06T00:38:43.660Z,4.23
2017-12-06T00:41:10.103Z,3.20
2017-12-06T00:43:36.586Z,3.30
2017-12-06T00:46:02.795Z,3.30
2017-12-06T00:48:29.022Z,3.30
2017-12-06T00:50:55.274Z,3.67
2017-12-06T00:53:21.462Z,3.73
2017-12-06T00:55:47.654Z,3.30
2017-12-06T00:58:14.249Z,3.43
2017-12-06T01:00:45.390Z,3.57
2017-12-06T01:03:11.655Z,3.20
2017-12-06T01:05:37.875Z,3.00
2017-12-06T01:08:04.085Z,3.70
2017-12-06T01:10:30.307Z,3.43
2017-12-06T01:12:56.788Z,3.10
2017-12-06T01:15:22.977Z,3.10
2017-12-06T01:17:49.179Z,3.30
2017-12-06T01:20:15.434Z,3.90
2017-12-06T01:22:41.627Z,3.53
2017-12-06T01:25:07.827Z,3.67
2017-12-06T01:27:34.065Z,3.50
2017-12-06T01:30:00.253Z,3.63
2017-12-06T01:32:26.494Z,3.13
2017-12-06T01:34:52.745Z,4.10
2017-12-06T01:37:18.941Z,3.70
2017-12-06T01:39:45.129Z,3.47
2017-12-06T01:42:11.368Z,3.90
2017-12-06T01:44:37.849Z,3.47
2017-12-06T01:47:04.362Z,3.43
2017-12-06T01:49:30.614Z,4.13
2017-12-06T01:51:56.793Z,3.23
2017-12-06T01:54:23.080Z,3.70
2017-12-06T01:56:49.314Z,3.87
2017-12-06T01:59:15.802Z,3.30
2017-12-06T02:01:42.306Z,3.40
2017-12-06T02:04:08.493Z,3.70
2017-12-06T02:06:34.710Z,3.50
2017-12-06T02:09:01.035Z,3.87
2017-12-06T02:11:27.243Z,3.83
2017-12-06T02:13:53.452Z,3.50
2017-12-06T02:16:19.745Z,4.10
2017-12-06T02:18:45.939Z,2.90
2017-12-06T02:21:12.146Z,3.07
2017-12-06T02:23:38.393Z,4.27
2017-12-06T02:26:04.602Z,3.57
2017-12-06T02:28:30.801Z,3.87
2017-12-06T02:30:57.045Z,3.50
2017-12-06T02:33:23.288Z,4.10
2017-12-06T02:35:49.566Z,4.07
2017-12-06T02:38:15.806Z,3.53
2017-12-06T02:40:54.167Z,3.73
2017-12-06T02:46:22.539Z,3.67
2017-12-06T02:48:48.805Z,3.67
2017-12-06T02:51:14.996Z,3.77
2017-12-06T02:53:41.191Z,4.00
2017-12-06T02:56:07.441Z,3.10
2017-12-06T02:58:33.856Z,3.10
2017-12-06T03:01:00.110Z,3.63
2017-12-06T03:03:26.358Z,3.33
2017-12-06T03:05:52.558Z,4.07
2017-12-06T03:08:18.748Z,3.90
2017-12-06T03:10:45.046Z,3.87
2017-12-06T03:13:11.246Z,4.17
2017-12-06T03:15:37.428Z,2.90
2017-12-06T03:18:03.662Z,3.90
2017-12-06T03:20:29.863Z,3.10
2017-12-06T03:22:56.086Z,4.67
2017-12-06T03:25:22.367Z,3.40
2017-12-06T03:27:48.569Z,2.93
2017-12-06T03:30:14.778Z,3.23
2017-12-06T03:32:41.340Z,3.13
2017-12-06T03:35:07.542Z,3.00
2017-12-06T03:37:33.736Z,3.30
2017-12-06T03:40:00.325Z,3.20
2017-12-06T03:42:26.760Z,3.30
2017-12-06T03:44:52.961Z,3.93
2017-12-06T03:47:19.504Z,3.50
2017-12-06T03:49:45.691Z,3.70
2017-12-06T03:52:12.149Z,3.53
2017-12-06T03:54:38.388Z,3.40
2017-12-06T03:57:04.577Z,3.97
2017-12-06T03:59:31.541Z,3.10
2017-12-06T04:01:57.835Z,3.07
2017-12-06T04:04:24.400Z,3.27
2017-12-06T04:06:50.603Z,3.83
2017-12-06T04:09:16.853Z,3.27
2017-12-06T04:11:43.329Z,3.30
2017-12-06T04:14:09.575Z,3.67
2017-12-06T04:16:35.867Z,3.30
2017-12-06T04:19:02.074Z,3.77
2017-12-06T04:21:28.271Z,3.27
2017-12-06T04:23:54.523Z,3.20
2017-12-06T04:26:20.709Z,3.53
2017-12-06T04:28:46.902Z,3.30
2017-12-06T04:31:13.395Z,4.13
2017-12-06T04:33:39.601Z,3.60
2017-12-06T04:36:06.038Z,3.47
2017-12-06T04:38:32.283Z,3.17
2017-12-06T04:40:58.493Z,3.57
2017-12-06T04:43:24.688Z,3.90
2017-12-06T04:45:51.174Z,4.03
2017-12-06T04:48:17.377Z,2.73
2017-12-06T04:50:43.601Z,3.73
2017-12-06T04:53:10.005Z,2.73
2017-12-06T04:55:36.486Z,3.53
2017-12-06T04:58:02.814Z,3.67
2017-12-06T05:00:29.183Z,3.80
2017-12-06T05:02:55.513Z,3.73
2017-12-06T05:05:21.953Z,3.50
2017-12-06T05:07:48.444Z,3.50
2017-12-06T05:10:14.632Z,4.13
2017-12-06T05:12:41.092Z,3.90
2017-12-06T05:15:07.341Z,3.53
2017-12-06T05:17:33.539Z,3.37
2017-12-06T05:19:59.756Z,3.83
2017-12-06T05:22:26.239Z,4.10
2017-12-06T05:24:52.463Z,4.07
2017-12-06T05:27:18.898Z,3.60
2017-12-06T05:29:45.160Z,4.17
2017-12-06T05:32:11.814Z,4.40
2017-12-06T05:34:38.010Z,3.80
2017-12-06T05:37:04.501Z,4.30
2017-12-06T05:39:31.412Z,4.40
2017-12-06T05:41:58.176Z,4.03
2017-12-06T05:44:24.493Z,4.60
2017-12-06T05:46:50.984Z,4.03
2017-12-06T05:49:17.179Z,4.50
2017-12-06T05:51:43.487Z,3.80
2017-12-06T05:54:09.669Z,4.17
2017-12-06T05:56:35.856Z,3.63
2017-12-06T05:59:02.447Z,3.53
2017-12-06T06:01:28.876Z,3.60
2017-12-06T06:03:55.081Z,4.33
2017-12-06T06:06:21.321Z,4.47
2017-12-06T06:08:47.532Z,4.03
2017-12-06T06:11:13.775Z,5.00
2017-12-06T06:13:40.025Z,4.07
2017-12-06T06:16:06.224Z,3.67
2017-12-06T06:18:32.425Z,4.00
2017-12-06T06:20:58.673Z,5.00
2017-12-06T06:23:25.686Z,4.60
2017-12-06T06:25:52.421Z,4.80
2017-12-06T06:28:19.286Z,4.50
2017-12-06T06:30:45.525Z,4.47
2017-12-06T06:33:11.712Z,4.10
2017-12-06T06:35:37.960Z,4.40
2017-12-06T06:38:04.447Z,4.07
2017-12-06T06:40:30.646Z,4.83
2017-12-06T06:42:56.895Z,3.47
2017-12-06T06:45:23.153Z,4.47
2017-12-06T06:47:49.364Z,4.03
2017-12-06T06:50:15.631Z,3.80
2017-12-06T06:52:41.880Z,3.60
2017-12-06T06:55:08.072Z,3.97
2017-12-06T06:57:34.333Z,3.53
2017-12-06T07:00:00.743Z,4.03
2017-12-06T07:02:27.185Z,4.10
2017-12-06T07:04:53.454Z,3.50
2017-12-06T07:07:19.664Z,3.90
2017-12-06T07:09:45.860Z,3.00
2017-12-06T07:12:18.251Z,3.30
2017-12-06T07:14:44.484Z,3.80
2017-12-06T07:17:10.703Z,3.50
2017-12-06T07:19:51.844Z,4.00
2017-12-06T07:22:18.050Z,4.27
2017-12-06T07:24:44.267Z,3.47
2017-12-06T07:27:10.509Z,3.47
2017-12-06T07:29:36.767Z,3.70
2017-12-06T07:32:03.104Z,4.93
2017-12-06T07:34:29.397Z,3.93
2017-12-06T07:36:55.952Z,3.13
2017-12-06T07:39:22.133Z,3.70
2017-12-06T07:41:48.569Z,3.50
2017-12-06T07:44:14.830Z,3.67
2017-12-06T07:46:41.034Z,3.67
2017-12-06T07:49:07.481Z,3.67
2017-12-06T07:51:33.749Z,3.00
2017-12-06T07:54:00.135Z,4.83
2017-12-06T07:56:26.359Z,3.27
2017-12-06T07:58:52.942Z,2.80
2017-12-06T08:01:19.141Z,3.40
2017-12-06T08:03:45.447Z,3.40
2017-12-06T08:06:11.959Z,3.33
2017-12-06T08:08:38.154Z,2.70
2017-12-06T08:11:04.857Z,3.40
2017-12-06T08:13:31.089Z,3.10
2017-12-06T08:15:57.353Z,3.13
2017-12-06T08:18:23.823Z,2.80
2017-12-06T08:20:50.035Z,3.07
2017-12-06T08:23:16.228Z,3.80
2017-12-06T08:25:42.521Z,3.10
2017-12-06T08:28:08.835Z,3.30
2017-12-06T08:30:35.307Z,2.60
2017-12-06T08:33:01.562Z,3.00
2017-12-06T08:35:27.745Z,3.37
2017-12-06T08:37:53.940Z,3.43
2017-12-06T08:40:20.435Z,2.63
2017-12-06T08:42:46.895Z,3.30
2017-12-06T08:45:13.110Z,2.87
2017-12-06T08:47:39.394Z,3.07
2017-12-06T08:50:05.826Z,3.40
2017-12-06T08:52:32.077Z,3.07
2017-12-06T08:54:58.318Z,3.30
2017-12-06T08:57:24.522Z,3.10
2017-12-06T08:59:50.718Z,2.57
2017-12-06T09:02:16.984Z,3.17
2017-12-06T09:04:43.180Z,3.10
2017-12-06T09:07:09.406Z,2.70
2017-12-06T09:09:35.669Z,3.23
2017-12-06T09:12:01.926Z,2.77
2017-12-06T09:14:28.214Z,3.37
2017-12-06T09:16:54.754Z,2.50
2017-12-06T09:19:21.207Z,2.90
2017-12-06T09:21:47.401Z,2.93
2017-12-06T09:24:13.753Z,2.23
2017-12-06T09:26:39.962Z,2.60
2017-12-06T09:29:06.155Z,2.03
2017-12-06T09:31:32.402Z,2.67
2017-12-06T09:33:58.612Z,2.87
2017-12-06T09:36:24.826Z,2.80
2017-12-06T09:38:51.111Z,2.53
2017-12-06T09:41:17.285Z,2.40
2017-12-06T09:43:43.468Z,1.90
2017-12-06T09:46:09.770Z,2.10
2017-12-06T09:48:35.974Z,2.70
2017-12-06T09:51:02.198Z,2.43
2017-12-06T09:53:28.449Z,2.47
2017-12-06T09:55:54.657Z,2.30
2017-12-06T09:58:20.900Z,2.40
2017-12-06T10:00:47.154Z,2.73
2017-12-06T10:03:13.366Z,2.77
2017-12-06T10:05:39.541Z,2.20
2017-12-06T10:08:06.025Z,2.00
2017-12-06T10:10:32.221Z,2.60
2017-12-06T10:12:58.678Z,2.40
2017-12-06T10:15:24.982Z,2.37
2017-12-06T10:17:51.198Z,2.67
2017-12-06T10:20:17.416Z,2.37
2017-12-06T10:22:43.735Z,2.57
2017-12-06T10:25:09.953Z,2.10
2017-12-06T10:27:36.151Z,2.33
2017-12-06T10:30:02.408Z,2.80
2017-12-06T10:32:28.621Z,3.23
2017-12-06T10:34:54.816Z,2.40
2017-12-06T10:37:21.325Z,2.40
2017-12-06T10:39:47.545Z,2.23
2017-12-06T10:42:13.790Z,2.23
2017-12-06T10:44:40.045Z,3.23
2017-12-06T10:47:06.330Z,2.10
2017-12-06T10:49:32.586Z,2.43
2017-12-06T10:51:59.095Z,2.37
2017-12-06T10:54:25.280Z,2.43
2017-12-06T10:56:51.504Z,2.03
2017-12-06T10:59:17.778Z,2.40
2017-12-06T11:01:43.982Z,2.20
2017-12-06T11:04:10.179Z,1.80
2017-12-06T11:06:36.442Z,2.40
2017-12-06T11:09:03.026Z,2.53
2017-12-06T11:11:29.227Z,2.43
2017-12-06T11:13:55.494Z,2.33
2017-12-06T11:16:21.739Z,2.03
2017-12-06T11:18:47.940Z,2.23
2017-12-06T11:21:14.192Z,2.20
2017-12-06T11:23:40.412Z,2.30
2017-12-06T11:26:06.618Z,1.80
2017-12-06T11:28:32.862Z,2.30
2017-12-06T11:30:59.064Z,2.37
2017-12-06T11:33:25.303Z,2.37
2017-12-06T11:35:51.586Z,2.30
2017-12-06T11:38:17.782Z,2.90
2017-12-06T11:40:44.035Z,2.30
2017-12-06T11:43:10.361Z,2.67
2017-12-06T11:45:36.826Z,2.60
2017-12-06T11:48:03.052Z,2.50
2017-12-06T11:50:29.339Z,2.53
2017-12-06T11:52:55.955Z,2.73
2017-12-06T11:55:22.234Z,2.47
2017-12-06T11:57:48.740Z,2.50
2017-12-06T12:00:14.972Z,2.60
2017-12-06T12:02:41.268Z,3.00
2017-12-06T12:05:08.386Z,3.20
2017-12-06T12:07:34.618Z,2.80
2017-12-06T12:10:00.863Z,3.30
2017-12-06T12:12:27.104Z,2.93
2017-12-06T12:14:53.307Z,2.90
2017-12-06T12:17:19.530Z,3.60
2017-12-06T12:19:45.781Z,3.13
2017-12-06T12:22:12.002Z,2.90
2017-12-06T12:24:38.223Z,2.63
2017-12-06T12:27:04.486Z,3.30
2017-12-06T12:29:30.694Z,2.70
2017-12-06T12:31:56.893Z,3.27
2017-12-06T12:34:23.152Z,2.50
2017-12-06T12:36:49.358Z,2.50
2017-12-06T12:39:15.585Z,2.83
2017-12-06T12:41:42.116Z,2.80
2017-12-06T12:44:08.386Z,3.00
2017-12-06T12:46:34.591Z,3.20
2017-12-06T12:49:00.858Z,3.07
2017-12-06T12:51:27.084Z,2.67
2017-12-06T12:53:53.336Z,3.40
2017-12-06T12:56:19.873Z,2.50
2017-12-06T12:58:46.323Z,2.73
2017-12-06T13:01:12.598Z,2.60
2017-12-06T13:03:38.888Z,3.27
2017-12-06T13:06:05.110Z,2.40
2017-12-06T13:08:31.343Z,4.10
2017-12-06T13:10:57.663Z,3.47
2017-12-06T13:13:23.892Z,3.00
2017-12-06T13:15:50.115Z,3.30
2017-12-06T13:18:16.392Z,2.67
2017-12-06T13:20:42.675Z,2.57
2017-12-06T13:23:08.943Z,3.20
2017-12-06T13:25:35.274Z,3.07
2017-12-06T13:28:01.506Z,3.17
2017-12-06T13:30:27.755Z,2.60
2017-12-06T13:32:54.056Z,2.40
2017-12-06T13:35:20.261Z,3.03
2017-12-06T13:37:46.798Z,3.27
2017-12-06T13:40:13.056Z,3.13
2017-12-06T13:42:39.261Z,2.93
2017-12-06T13:45:05.481Z,3.30
2017-12-06T13:47:31.849Z,3.20
2017-12-06T13:49:58.062Z,2.53
2017-12-06T13:52:24.308Z,2.40
2017-12-06T13:57:22.638Z,3.00
2017-12-06T13:59:48.816Z,2.80
2017-12-06T14:02:15.067Z,3.17
2017-12-06T14:04:41.321Z,2.90
2017-12-06T14:07:07.508Z,3.13
2017-12-06T14:09:34.108Z,3.27
2017-12-06T14:12:00.307Z,3.57
2017-12-06T14:14:26.513Z,5.70
2017-12-06T14:16:52.812Z,3.47
2017-12-06T14:19:19.046Z,3.27
2017-12-06T14:21:45.282Z,3.13
2017-12-06T14:24:11.588Z,3.50
2017-12-06T14:26:37.810Z,3.53
2017-12-06T14:29:04.092Z,2.97
2017-12-06T14:31:30.377Z,2.90
2017-12-06T14:33:56.598Z,2.70
2017-12-06T14:36:22.905Z,3.20
2017-12-06T14:38:49.165Z,3.27
2017-12-06T14:41:15.375Z,2.90
2017-12-06T14:43:41.599Z,3.03
2017-12-06T14:46:07.878Z,2.93
2017-12-06T14:48:34.095Z,3.20
2017-12-06T14:51:00.333Z,2.77
2017-12-06T14:53:26.634Z,2.40
2017-12-06T14:55:52.854Z,2.67
2017-12-06T14:58:19.377Z,2.77
2017-12-06T15:00:45.636Z,2.80
2017-12-06T15:03:12.084Z,2.73
2017-12-06T15:05:38.292Z,3.03
2017-12-06T15:08:04.575Z,3.10
2017-12-06T15:10:30.791Z,4.53
2017-12-06T15:12:57.276Z,3.77
2017-12-06T15:15:23.547Z,3.57
2017-12-06T15:17:49.765Z,3.20
2017-12-06T15:20:16.036Z,3.70
2017-12-06T15:22:42.336Z,3.37
2017-12-06T15:25:08.624Z,2.93
2017-12-06T15:27:35.077Z,3.17
2017-12-06T15:30:01.366Z,3.67
2017-12-06T15:32:27.552Z,2.50
2017-12-06T15:34:53.769Z,3.07
2017-12-06T15:37:20.026Z,3.17
2017-12-06T15:39:46.220Z,3.00
2017-12-06T15:42:12.468Z,2.57
2017-12-06T15:44:38.752Z,2.97
2017-12-06T15:47:04.993Z,2.63
2017-12-06T15:49:31.510Z,2.70
2017-12-06T15:51:57.759Z,3.57
2017-12-06T15:54:24.055Z,3.53
2017-12-06T15:56:50.285Z,2.93
2017-12-06T15:59:16.549Z,2.93
2017-12-06T16:01:42.804Z,3.20
2017-12-06T16:04:09.108Z,3.33
2017-12-06T16:06:35.442Z,3.03
2017-12-06T16:09:01.978Z,2.93
2017-12-06T16:11:28.323Z,2.90
2017-12-06T16:13:54.828Z,2.87
2017-12-06T16:16:21.088Z,3.10
2017-12-06T16:18:47.392Z,2.70
2017-12-06T16:21:13.707Z,2.30
2017-12-06T16:23:39.983Z,2.50
2017-12-06T16:26:06.277Z,3.50
2017-12-06T16:28:32.574Z,3.60
2017-12-06T16:30:58.908Z,3.90
2017-12-06T16:33:25.146Z,5.27
2017-12-06T16:36:03.583Z,4.80
2017-12-06T16:38:29.855Z,4.97
2017-12-06T16:40:56.062Z,4.93
2017-12-06T16:43:22.421Z,4.67
2017-12-06T16:45:48.870Z,4.50
2017-12-06T16:48:15.207Z,4.00
2017-12-06T16:50:41.603Z,5.30
2017-12-06T16:53:07.940Z,5.13
2017-12-06T16:55:34.183Z,5.33
2017-12-06T16:58:00.575Z,4.30
2017-12-06T17:00:26.899Z,3.83
2017-12-06T17:02:53.242Z,4.27
2017-12-06T17:05:19.553Z,4.07
2017-12-06T17:07:45.860Z,4.13
2017-12-06T17:10:12.318Z,4.23
2017-12-06T17:12:38.679Z,3.60
2017-12-06T17:15:04.915Z,4.47
2017-12-06T17:17:31.226Z,4.63
2017-12-06T17:19:57.824Z,4.90
2017-12-06T17:22:24.121Z,4.50
2017-12-06T17:24:50.321Z,4.77
2017-12-06T17:27:16.594Z,4.40
2017-12-06T17:29:55.072Z,4.47
2017-12-06T17:32:21.361Z,4.20
2017-12-06T17:34:47.601Z,4.90
2017-12-06T17:37:13.845Z,4.73
2017-12-06T17:39:40.135Z,4.40
2017-12-06T17:42:06.342Z,4.33
2017-12-06T17:44:32.779Z,4.53
2017-12-06T17:46:59.387Z,4.10
2017-12-06T17:51:57.284Z,4.27
2017-12-06T17:54:23.572Z,4.87
2017-12-06T17:56:49.787Z,4.43
2017-12-06T17:59:16.010Z,4.10
2017-12-06T18:01:42.266Z,4.67
2017-12-06T18:04:08.479Z,3.90
2017-12-06T18:06:34.699Z,3.67
2017-12-06T18:09:00.970Z,3.90
2017-12-06T18:11:27.460Z,3.80
2017-12-06T18:13:53.654Z,3.47
2017-12-06T18:16:26.178Z,3.50
2017-12-06T18:18:52.403Z,3.40
2017-12-06T18:21:18.647Z,3.90
2017-12-06T18:23:44.900Z,4.37
2017-12-06T18:26:11.195Z,4.10
2017-12-06T18:28:37.708Z,3.80
2017-12-06T18:31:03.981Z,3.73
2017-12-06T18:33:30.180Z,3.77
2017-12-06T18:35:56.381Z,4.40
2017-12-06T18:38:22.646Z,3.80
2017-12-06T18:40:48.848Z,3.53
2017-12-06T18:43:15.054Z,4.03
2017-12-06T18:45:41.384Z,3.70
2017-12-06T18:48:07.660Z,3.50
2017-12-06T18:50:33.873Z,3.80
2017-12-06T18:53:00.251Z,3.23
2017-12-06T18:55:26.479Z,3.80
2017-12-06T18:57:52.782Z,3.00
2017-12-06T19:00:21.719Z,3.80
2017-12-06T19:02:48.165Z,3.23
2017-12-06T19:05:14.362Z,2.83
2017-12-06T19:07:40.648Z,3.67
2017-12-06T19:10:06.854Z,3.10
2017-12-06T19:12:33.082Z,3.77
2017-12-06T19:14:59.351Z,3.40
2017-12-06T19:17:25.772Z,3.23
2017-12-06T19:19:51.984Z,2.80
2017-12-06T19:22:18.353Z,3.20
2017-12-06T19:24:44.551Z,4.63
2017-12-06T19:27:10.763Z,5.50
2017-12-06T19:29:37.039Z,3.17
2017-12-06T19:32:03.501Z,3.30
2017-12-06T19:34:29.723Z,3.20
2017-12-06T19:36:55.990Z,3.30
2017-12-06T19:39:22.194Z,3.83
2017-12-06T19:41:48.395Z,3.77
2017-12-06T19:44:14.638Z,3.20
2017-12-06T19:46:40.848Z,3.60
2017-12-06T19:49:07.050Z,3.80
2017-12-06T19:51:33.439Z,3.30
2017-12-06T19:53:59.877Z,3.33
2017-12-06T19:56:26.094Z,3.67
2017-12-06T19:58:52.359Z,4.70
2017-12-06T20:01:18.571Z,4.07
2017-12-06T20:03:44.820Z,4.37
2017-12-06T20:06:11.066Z,3.17
2017-12-06T20:08:37.285Z,3.80
2017-12-06T20:11:03.490Z,3.17
2017-12-06T20:13:29.753Z,4.30
2017-12-06T20:15:55.929Z,3.57
2017-12-06T20:18:22.159Z,3.40
2017-12-06T20:20:48.440Z,3.90
2017-12-06T20:23:14.981Z,3.20
2017-12-06T20:25:41.186Z,3.30
2017-12-06T20:28:07.431Z,3.60
2017-12-06T20:30:33.635Z,3.33
2017-12-06T20:32:59.840Z,3.20
2017-12-06T20:35:26.107Z,2.83
2017-12-06T20:37:52.316Z,3.20
2017-12-06T20:40:18.524Z,3.80
2017-12-06T20:42:44.825Z,3.27
2017-12-06T20:45:11.011Z,3.23
2017-12-06T20:47:37.458Z,3.10
2017-12-06T20:50:03.695Z,2.80
2017-12-06T20:52:29.913Z,2.93
2017-12-06T20:54:56.109Z,2.80
2017-12-06T20:57:22.353Z,2.93
2017-12-06T20:59:48.800Z,3.90
2017-12-06T21:02:15.015Z,3.63
2017-12-06T21:04:41.279Z,2.70
2017-12-06T21:07:07.482Z,2.60
2017-12-06T21:09:33.681Z,2.80
2017-12-06T21:11:59.932Z,3.13
2017-12-06T21:14:26.346Z,3.20
2017-12-06T21:16:52.540Z,3.60
2017-12-06T21:19:18.777Z,3.87
2017-12-06T21:21:45.034Z,3.30
2017-12-06T21:24:11.260Z,3.30
2017-12-06T21:26:37.557Z,3.20
2017-12-06T21:29:03.783Z,3.40
2017-12-06T21:31:30.230Z,3.47
2017-12-06T21:33:56.477Z,3.30
2017-12-06T21:36:22.650Z,2.73
2017-12-06T21:38:48.851Z,3.30
2017-12-06T21:41:15.119Z,3.33
2017-12-06T21:43:41.558Z,3.43
2017-12-06T21:46:07.968Z,3.30
2017-12-06T21:48:34.208Z,3.10
2017-12-06T21:51:00.392Z,3.77
2017-12-06T21:53:26.589Z,3.20
2017-12-06T21:55:53.186Z,3.67
2017-12-06T21:58:19.399Z,3.80
2017-12-06T22:00:45.614Z,3.40
2017-12-06T22:03:11.856Z,3.67
2017-12-06T22:05:38.086Z,4.00
2017-12-06T22:08:04.309Z,3.13
2017-12-06T22:10:30.553Z,3.97
2017-12-06T22:12:56.729Z,2.90
2017-12-06T22:15:22.922Z,3.83
2017-12-06T22:17:49.155Z,3.20
2017-12-06T22:20:15.358Z,3.70
2017-12-06T22:22:41.560Z,3.20
2017-12-06T22:25:07.882Z,3.40
2017-12-06T22:27:34.074Z,3.03
2017-12-06T22:30:00.304Z,3.70
2017-12-06T22:32:26.822Z,3.60
2017-12-06T22:34:53.040Z,4.07
2017-12-06T22:37:19.254Z,3.97
2017-12-06T22:39:45.762Z,4.10
2017-12-06T22:42:11.971Z,3.60
2017-12-06T22:44:38.281Z,3.33
2017-12-06T22:47:04.509Z,3.60
2017-12-06T22:49:30.716Z,3.67
2017-12-06T22:51:56.941Z,2.93
2017-12-06T22:54:23.213Z,3.03
2017-12-06T22:56:49.407Z,4.07
2017-12-06T22:59:15.589Z,3.87
2017-12-06T23:01:42.106Z,3.30
2017-12-06T23:04:08.325Z,3.77
2017-12-06T23:06:34.549Z,3.40
2017-12-06T23:09:00.806Z,3.80
2017-12-06T23:11:27.001Z,3.60
2017-12-06T23:13:53.273Z,3.60
2017-12-06T23:16:19.554Z,3.30
2017-12-06T23:18:45.863Z,3.07
2017-12-06T23:21:12.069Z,3.53
2017-12-06T23:23:38.545Z,3.57
2017-12-06T23:26:04.817Z,3.50
2017-12-06T23:28:31.048Z,3.80
2017-12-06T23:30:57.300Z,3.93
2017-12-06T23:33:23.802Z,4.40
2017-12-06T23:35:50.308Z,3.57
2017-12-06T23:38:16.592Z,3.50
2017-12-06T23:40:42.881Z,3.10
2017-12-06T23:43:09.070Z,2.87
2017-12-06T23:45:35.336Z,3.40
2017-12-06T23:48:01.559Z,3.40
2017-12-06T23:50:27.786Z,2.93
2017-12-06T23:52:54.281Z,3.70
2017-12-06T23:55:20.493Z,3.23
2017-12-06T23:57:46.690Z,2.97
